Time;durP1;ratioP1;P1;durP2;ratioP2;P2;SDS_P1;SDS_P2;PMS_P1;PMS_P2;Temp;Humidity;BMP_temperature;BMP_pressure;BME280_temperature;BME280_humidity;BME280_pressure;Samples;Min_cycle;Max_cycle;Signal;HPM_P1;HPM_P2
2021/12/06 00:00:10;;;;;;;43.28;34.40;;;;;;;;;;4990969;28;20072;-73
2021/12/06 00:02:38;;;;;;;39.53;32.20;;;;;;;;;;4989442;28;20066;-74
2021/12/06 00:05:09;;;;;;;42.53;35.40;;;;;;;;;;4987816;28;20042;-73
2021/12/06 00:07:38;;;;;;;40.97;34.15;;;;;;;;;;4982375;28;20054;-73
2021/12/06 00:10:07;;;;;;;41.85;32.70;;;;;;;;;;4989084;28;20042;-73
2021/12/06 00:12:35;;;;;;;38.10;32.22;;;;;;;;;;4988181;28;20047;-74
2021/12/06 00:15:04;;;;;;;46.97;35.47;;;;;;;;;;4988934;28;20129;-74
2021/12/06 00:17:31;;;;;;;40.80;33.83;;;;;;;;;;4987791;28;20100;-74
2021/12/06 00:19:58;;;;;;;38.67;31.63;;;;;;;;;;4988993;28;20057;-74
2021/12/06 00:22:25;;;;;;;35.92;31.65;;;;;;;;;;4989968;28;20108;-73
2021/12/06 00:24:56;;;;;;;41.13;32.88;;;;;;;;;;4988679;28;20054;-74
2021/12/06 00:27:23;;;;;;;43.53;31.52;;;;;;;;;;4983055;28;20497;-72
2021/12/06 00:29:50;;;;;;;42.70;33.40;;;;;;;;;;4974206;28;20089;-73
2021/12/06 00:32:17;;;;;;;40.15;31.73;;;;;;;;;;4990381;28;20082;-73
2021/12/06 00:34:44;;;;;;;40.22;32.65;;;;;;;;;;4988757;28;20545;-73
2021/12/06 00:37:22;;;;;;;43.22;32.45;;;;;;;;;;4990763;28;20508;-73
2021/12/06 00:39:51;;;;;;;35.40;30.17;;;;;;;;;;4987750;28;20047;-69
2021/12/06 00:42:20;;;;;;;39.90;31.42;;;;;;;;;;4967044;28;20051;-74
2021/12/06 00:44:47;;;;;;;35.85;29.33;;;;;;;;;;4971944;28;20041;-77
2021/12/06 00:47:14;;;;;;;41.97;33.75;;;;;;;;;;4990103;28;20053;-72
2021/12/06 00:49:44;;;;;;;37.67;32.08;;;;;;;;;;4993766;28;20370;-72
2021/12/06 00:52:12;;;;;;;41.17;32.03;;;;;;;;;;4978775;28;20509;-73
2021/12/06 00:54:39;;;;;;;39.80;30.50;;;;;;;;;;4979052;28;20084;-71
2021/12/06 00:57:09;;;;;;;43.45;30.25;;;;;;;;;;4978664;28;20050;-72
2021/12/06 00:59:37;;;;;;;42.17;31.00;;;;;;;;;;4996195;28;20469;-71
2021/12/06 01:02:07;;;;;;;39.08;31.80;;;;;;;;;;4996287;28;20042;-71
2021/12/06 01:04:36;;;;;;;35.05;29.73;;;;;;;;;;4979118;28;20547;-72
2021/12/06 01:07:05;;;;;;;38.67;29.13;;;;;;;;;;4978581;28;20043;-71
2021/12/06 01:09:32;;;;;;;36.78;30.25;;;;;;;;;;4996365;28;20062;-71
2021/12/06 01:11:59;;;;;;;38.50;27.95;;;;;;;;;;4978651;28;20081;-71
2021/12/06 01:14:26;;;;;;;38.58;30.80;;;;;;;;;;4995878;28;20117;-71
2021/12/06 01:16:53;;;;;;;35.72;29.27;;;;;;;;;;4996243;28;20108;-71
2021/12/06 01:19:27;;;;;;;35.53;30.55;;;;;;;;;;4978113;28;20042;-72
2021/12/06 01:24:45;;;;;;;41.78;32.30;;;;;;;;;;4977267;28;20049;-74
2021/12/06 01:30:22;;;;;;;40.67;30.98;;;;;;;;;;4978241;28;20401;-74
2021/12/06 01:41:15;;;;;;;31.80;25.13;;;;;;;;;;4946374;28;20046;-78
2021/12/06 01:44:07;;;;;;;33.90;24.80;;;;;;;;;;4978456;28;20386;-79
2021/12/06 01:46:41;;;;;;;39.13;28.65;;;;;;;;;;4977570;28;20043;-79
2021/12/06 01:49:09;;;;;;;32.05;25.75;;;;;;;;;;4978805;28;20050;-77
2021/12/06 01:51:38;;;;;;;33.35;26.33;;;;;;;;;;4978058;28;20096;-78
2021/12/06 01:54:06;;;;;;;30.30;25.08;;;;;;;;;;4978278;28;20046;-77
2021/12/06 01:56:33;;;;;;;29.38;23.50;;;;;;;;;;4977773;28;20501;-78
2021/12/06 01:59:00;;;;;;;28.58;22.15;;;;;;;;;;4978221;28;20405;-78
2021/12/06 02:01:28;;;;;;;28.33;21.75;;;;;;;;;;4977940;28;20501;-80
2021/12/06 02:03:57;;;;;;;31.20;22.63;;;;;;;;;;4979444;28;20039;-79
2021/12/06 02:06:24;;;;;;;25.52;22.17;;;;;;;;;;4978191;28;20053;-79
2021/12/06 02:08:52;;;;;;;27.77;21.48;;;;;;;;;;4977640;28;20121;-80
2021/12/06 02:11:22;;;;;;;30.73;24.17;;;;;;;;;;4977791;28;20073;-79
2021/12/06 02:14:15;;;;;;;25.25;19.48;;;;;;;;;;4977622;28;20042;-78
2021/12/06 02:16:59;;;;;;;26.95;18.23;;;;;;;;;;4995529;28;20038;-78
2021/12/06 02:19:31;;;;;;;22.35;17.65;;;;;;;;;;4977538;28;20042;-78
2021/12/06 02:22:00;;;;;;;21.38;16.27;;;;;;;;;;4962593;28;20053;-78
2021/12/06 02:24:30;;;;;;;20.00;17.88;;;;;;;;;;4995094;28;20397;-79
2021/12/06 02:26:59;;;;;;;22.67;16.27;;;;;;;;;;4977876;28;20042;-79
2021/12/06 02:29:28;;;;;;;21.27;16.75;;;;;;;;;;4977288;28;20475;-79
2021/12/06 02:31:56;;;;;;;20.35;17.65;;;;;;;;;;4977526;28;20497;-75
2021/12/06 02:34:23;;;;;;;18.90;15.95;;;;;;;;;;4994624;28;20042;-73
2021/12/06 02:36:51;;;;;;;20.33;16.50;;;;;;;;;;4977535;28;20051;-75
2021/12/06 02:39:24;;;;;;;19.85;15.48;;;;;;;;;;4977058;28;20050;-69
2021/12/06 02:41:53;;;;;;;18.98;14.52;;;;;;;;;;4995098;28;20084;-67
2021/12/06 02:44:20;;;;;;;19.58;15.40;;;;;;;;;;4977216;28;20042;-68
2021/12/06 02:46:47;;;;;;;18.92;16.45;;;;;;;;;;4994561;28;20400;-68
2021/12/06 02:49:15;;;;;;;16.95;14.48;;;;;;;;;;4977039;28;20073;-68
2021/12/06 02:51:43;;;;;;;18.30;13.38;;;;;;;;;;4994390;28;20111;-69
2021/12/06 02:54:10;;;;;;;13.30;11.38;;;;;;;;;;4994624;28;20043;-69
2021/12/06 02:56:53;;;;;;;14.20;11.43;;;;;;;;;;4976660;28;20070;-69
2021/12/06 02:59:25;;;;;;;17.23;12.75;;;;;;;;;;4977075;28;20053;-70
2021/12/06 03:01:58;;;;;;;15.05;13.40;;;;;;;;;;4976636;28;20046;-71
2021/12/06 03:04:26;;;;;;;13.27;11.25;;;;;;;;;;4976882;28;20053;-70
2021/12/06 03:06:55;;;;;;;15.57;11.95;;;;;;;;;;4994072;28;20046;-71
2021/12/06 03:09:26;;;;;;;12.02;8.93;;;;;;;;;;4994030;28;20493;-72
2021/12/06 03:11:57;;;;;;;14.75;11.18;;;;;;;;;;4976429;28;20143;-67
2021/12/06 03:14:32;;;;;;;18.60;11.70;;;;;;;;;;4993348;28;20038;-69
2021/12/06 03:17:05;;;;;;;14.23;10.43;;;;;;;;;;4976674;28;20073;-70
2021/12/06 03:19:34;;;;;;;16.17;13.48;;;;;;;;;;4976338;28;20073;-72
2021/12/06 03:22:03;;;;;;;18.02;12.18;;;;;;;;;;4976589;28;20046;-68
2021/12/06 03:24:30;;;;;;;17.23;12.63;;;;;;;;;;4955567;28;20047;-67
2021/12/06 03:26:57;;;;;;;19.20;15.30;;;;;;;;;;4979614;28;20404;-67
2021/12/06 03:29:26;;;;;;;18.42;15.27;;;;;;;;;;4974786;28;20145;-67
2021/12/06 03:31:56;;;;;;;18.90;14.95;;;;;;;;;;4975995;28;20069;-68
2021/12/06 03:34:26;;;;;;;18.85;16.55;;;;;;;;;;4975833;28;20505;-66
2021/12/06 03:36:57;;;;;;;18.25;14.95;;;;;;;;;;4976250;28;20054;-68
2021/12/06 03:39:28;;;;;;;20.23;14.80;;;;;;;;;;4975861;28;20112;-67
2021/12/06 03:41:59;;;;;;;18.25;15.40;;;;;;;;;;4976112;28;20137;-67
2021/12/06 03:44:28;;;;;;;18.65;16.38;;;;;;;;;;4992984;28;20113;-66
2021/12/06 03:47:08;;;;;;;20.60;14.73;;;;;;;;;;4976052;28;20047;-67
2021/12/06 03:49:35;;;;;;;19.70;17.42;;;;;;;;;;4975943;28;20046;-66
2021/12/06 03:52:04;;;;;;;21.50;17.50;;;;;;;;;;4975715;28;20043;-67
2021/12/06 03:54:33;;;;;;;20.58;16.67;;;;;;;;;;4976066;28;20054;-67
2021/12/06 03:57:02;;;;;;;23.05;17.60;;;;;;;;;;4975713;28;20082;-68
2021/12/06 03:59:29;;;;;;;20.40;16.40;;;;;;;;;;4976065;28;20050;-68
2021/12/06 04:01:56;;;;;;;19.00;16.77;;;;;;;;;;4975592;28;20404;-68
2021/12/06 04:04:25;;;;;;;17.35;15.45;;;;;;;;;;4975602;28;20046;-66
2021/12/06 04:06:53;;;;;;;16.13;11.48;;;;;;;;;;4975044;28;20046;-66
2021/12/06 04:09:21;;;;;;;15.65;12.45;;;;;;;;;;4975808;28;20051;-67
2021/12/06 04:11:49;;;;;;;14.75;12.68;;;;;;;;;;4959783;28;20042;-67
2021/12/06 04:14:17;;;;;;;11.43;10.23;;;;;;;;;;4993314;28;20045;-66
2021/12/06 04:16:44;;;;;;;11.25;8.50;;;;;;;;;;4975492;28;20042;-65
2021/12/06 04:19:11;;;;;;;11.82;9.60;;;;;;;;;;4975817;28;20121;-68
2021/12/06 04:21:40;;;;;;;12.45;9.77;;;;;;;;;;4975882;28;20133;-68
2021/12/06 04:24:09;;;;;;;11.90;9.98;;;;;;;;;;4975820;28;20082;-68
2021/12/06 04:26:37;;;;;;;8.88;7.70;;;;;;;;;;4979738;28;20038;-68
2021/12/06 04:29:06;;;;;;;14.48;12.52;;;;;;;;;;4979447;28;20043;-68
2021/12/06 04:31:43;;;;;;;17.05;14.50;;;;;;;;;;4979477;28;20042;-68
2021/12/06 04:34:11;;;;;;;20.42;17.77;;;;;;;;;;4963389;28;20070;-68
2021/12/06 04:36:40;;;;;;;20.75;17.52;;;;;;;;;;4979365;28;20093;-68
2021/12/06 04:39:12;;;;;;;23.92;18.35;;;;;;;;;;4979186;28;20105;-68
2021/12/06 04:41:40;;;;;;;26.75;21.20;;;;;;;;;;4977541;28;20047;-68
2021/12/06 04:44:08;;;;;;;24.95;20.90;;;;;;;;;;4996570;28;20042;-68
2021/12/06 04:46:36;;;;;;;24.75;21.15;;;;;;;;;;4979119;28;20081;-68
2021/12/06 04:49:05;;;;;;;24.95;20.67;;;;;;;;;;4996488;28;20489;-68
2021/12/06 04:51:35;;;;;;;27.33;22.02;;;;;;;;;;4979116;28;20050;-68
2021/12/06 04:54:03;;;;;;;26.65;22.73;;;;;;;;;;4979256;28;20512;-68
2021/12/06 04:56:32;;;;;;;30.83;25.58;;;;;;;;;;4978890;28;20496;-68
2021/12/06 04:59:31;;;;;;;33.17;23.25;;;;;;;;;;4979215;28;20066;-68
2021/12/06 05:02:03;;;;;;;28.35;23.02;;;;;;;;;;4978840;28;20046;-67
2021/12/06 05:04:34;;;;;;;30.83;24.67;;;;;;;;;;4979066;28;20133;-68
2021/12/06 05:07:16;;;;;;;29.10;23.25;;;;;;;;;;4978659;28;20050;-67
2021/12/06 05:09:44;;;;;;;27.33;23.10;;;;;;;;;;4978638;28;20053;-68
2021/12/06 05:12:15;;;;;;;24.55;21.77;;;;;;;;;;4978442;28;20587;-67
2021/12/06 05:14:42;;;;;;;20.55;18.40;;;;;;;;;;4978837;28;20508;-68
2021/12/06 05:17:11;;;;;;;17.77;15.88;;;;;;;;;;4978475;28;20054;-68
2021/12/06 05:19:38;;;;;;;18.08;16.23;;;;;;;;;;4978710;28;20070;-68
2021/12/06 05:22:07;;;;;;;20.20;17.58;;;;;;;;;;4995765;28;20042;-68
2021/12/06 05:24:35;;;;;;;20.10;15.77;;;;;;;;;;4993498;28;20516;-68
2021/12/06 05:27:05;;;;;;;19.35;16.95;;;;;;;;;;4978541;28;20397;-68
2021/12/06 05:29:35;;;;;;;28.08;20.02;;;;;;;;;;4994509;28;20515;-67
2021/12/06 05:32:02;;;;;;;20.67;17.80;;;;;;;;;;4995928;28;20055;-67
2021/12/06 05:34:38;;;;;;;18.02;15.23;;;;;;;;;;4995737;28;20039;-66
2021/12/06 05:37:06;;;;;;;23.17;19.65;;;;;;;;;;4994446;28;20070;-67
2021/12/06 05:39:33;;;;;;;24.08;18.75;;;;;;;;;;4995399;28;20046;-67
2021/12/06 05:42:03;;;;;;;27.35;21.45;;;;;;;;;;4995590;28;20049;-68
2021/12/06 05:44:31;;;;;;;26.20;21.45;;;;;;;;;;4995328;28;20057;-68
2021/12/06 05:46:58;;;;;;;31.65;23.00;;;;;;;;;;4995713;28;20421;-68
2021/12/06 05:49:26;;;;;;;24.77;19.45;;;;;;;;;;4995892;28;20389;-70
2021/12/06 05:51:53;;;;;;;25.17;21.98;;;;;;;;;;4995431;28;20051;-68
2021/12/06 05:54:20;;;;;;;25.83;21.02;;;;;;;;;;4995039;28;20137;-68
2021/12/06 05:56:48;;;;;;;24.90;21.40;;;;;;;;;;4995543;28;20617;-67
2021/12/06 05:59:15;;;;;;;25.20;20.17;;;;;;;;;;4995288;28;20042;-68
2021/12/06 06:01:42;;;;;;;27.80;22.98;;;;;;;;;;4995088;28;20049;-68
2021/12/06 06:04:09;;;;;;;19.58;17.15;;;;;;;;;;4995431;28;20234;-67
2021/12/06 06:06:37;;;;;;;18.80;16.55;;;;;;;;;;4977404;28;20034;-68
2021/12/06 06:09:06;;;;;;;17.23;15.38;;;;;;;;;;4995124;28;20046;-69
2021/12/06 06:11:36;;;;;;;18.38;16.42;;;;;;;;;;4995144;28;20049;-69
2021/12/06 06:14:05;;;;;;;19.45;15.77;;;;;;;;;;4994635;28;20108;-68
2021/12/06 06:16:46;;;;;;;15.40;13.15;;;;;;;;;;4992937;28;20125;-67
2021/12/06 06:19:21;;;;;;;19.23;17.20;;;;;;;;;;4994034;28;20069;-68
2021/12/06 06:21:49;;;;;;;17.83;15.32;;;;;;;;;;4992101;28;20042;-66
2021/12/06 06:24:16;;;;;;;22.88;18.50;;;;;;;;;;4994067;28;20643;-69
2021/12/06 06:26:43;;;;;;;28.25;20.38;;;;;;;;;;4993523;28;20493;-66
2021/12/06 06:29:11;;;;;;;25.17;21.15;;;;;;;;;;4994782;28;20382;-68
2021/12/06 06:31:39;;;;;;;22.15;17.88;;;;;;;;;;4994488;28;20078;-65
2021/12/06 06:34:07;;;;;;;22.65;18.85;;;;;;;;;;4993846;28;20058;-66
2021/12/06 06:36:34;;;;;;;22.70;18.52;;;;;;;;;;4994364;28;20481;-67
2021/12/06 06:39:04;;;;;;;19.48;17.40;;;;;;;;;;4993194;28;20062;-67
2021/12/06 06:41:31;;;;;;;19.38;15.73;;;;;;;;;;4975635;28;20046;-66
2021/12/06 06:43:59;;;;;;;17.98;16.00;;;;;;;;;;4992693;28;20073;-65
2021/12/06 06:46:26;;;;;;;19.52;16.75;;;;;;;;;;4992313;28;20046;-68
2021/12/06 06:48:54;;;;;;;22.20;15.95;;;;;;;;;;4991669;28;20046;-68
2021/12/06 06:51:23;;;;;;;21.85;14.85;;;;;;;;;;4992700;28;20053;-67
2021/12/06 06:53:50;;;;;;;18.48;15.20;;;;;;;;;;4993032;28;20509;-66
2021/12/06 06:56:17;;;;;;;18.15;14.13;;;;;;;;;;4994015;28;20046;-70
2021/12/06 06:58:44;;;;;;;15.13;12.57;;;;;;;;;;4994212;28;20038;-69
2021/12/06 07:01:11;;;;;;;17.42;12.95;;;;;;;;;;4993736;28;20058;-71
2021/12/06 07:03:38;;;;;;;15.20;13.60;;;;;;;;;;4994298;28;20049;-71
2021/12/06 07:06:05;;;;;;;16.40;12.85;;;;;;;;;;4993641;28;20035;-71
2021/12/06 07:08:33;;;;;;;17.77;13.57;;;;;;;;;;4990028;28;20066;-73
2021/12/06 07:11:01;;;;;;;14.75;13.18;;;;;;;;;;4987414;28;20073;-79
2021/12/06 07:13:28;;;;;;;15.05;12.15;;;;;;;;;;4989871;28;20107;-75
2021/12/06 07:15:56;;;;;;;13.80;12.00;;;;;;;;;;4983521;28;20485;-73
2021/12/06 07:18:23;;;;;;;44.30;13.30;;;;;;;;;;4978711;28;20054;-71
2021/12/06 07:20:50;;;;;;;13.82;12.35;;;;;;;;;;4991331;28;20105;-69
2021/12/06 07:23:16;;;;;;;14.85;12.38;;;;;;;;;;4990448;28;20047;-58
2021/12/06 07:25:43;;;;;;;13.80;11.88;;;;;;;;;;4988469;28;20042;-55
2021/12/06 07:28:10;;;;;;;12.32;10.27;;;;;;;;;;4987686;28;20047;-58
2021/12/06 07:30:37;;;;;;;12.68;9.50;;;;;;;;;;4989046;28;20448;-60
2021/12/06 07:33:05;;;;;;;11.52;9.20;;;;;;;;;;4986379;28;20069;-59
2021/12/06 07:35:32;;;;;;;19.00;10.65;;;;;;;;;;4986316;28;20619;-60
2021/12/06 07:38:00;;;;;;;12.07;10.35;;;;;;;;;;4989146;28;20058;-58
2021/12/06 07:40:27;;;;;;;12.73;10.52;;;;;;;;;;4990730;28;20046;-61
2021/12/06 07:42:54;;;;;;;14.85;11.52;;;;;;;;;;4991178;28;20497;-59
2021/12/06 07:45:21;;;;;;;16.48;12.43;;;;;;;;;;4974638;28;20437;-57
2021/12/06 07:47:49;;;;;;;17.02;13.60;;;;;;;;;;4981684;28;20401;-56
2021/12/06 07:50:18;;;;;;;17.45;14.38;;;;;;;;;;4984790;28;20069;-53
2021/12/06 07:52:49;;;;;;;18.63;15.55;;;;;;;;;;4984806;28;20342;-50
2021/12/06 07:55:17;;;;;;;22.05;16.40;;;;;;;;;;4982706;28;20089;-58
2021/12/06 07:57:45;;;;;;;17.70;15.75;;;;;;;;;;4985953;28;20050;-57
2021/12/06 08:00:15;;;;;;;18.98;17.00;;;;;;;;;;4984875;28;20055;-51
2021/12/06 08:02:42;;;;;;;21.25;16.55;;;;;;;;;;4982801;28;20051;-54
2021/12/06 08:05:30;;;;;;;22.25;17.50;;;;;;;;;;4984549;28;20038;-50
2021/12/06 08:08:10;;;;;;;19.88;15.85;;;;;;;;;;4975126;28;20405;-54
2021/12/06 08:10:44;;;;;;;20.00;17.00;;;;;;;;;;4982174;28;20038;-55
2021/12/06 08:13:13;;;;;;;18.33;15.25;;;;;;;;;;4988203;28;20050;-52
2021/12/06 08:15:40;;;;;;;18.58;16.30;;;;;;;;;;4988872;28;20043;-55
2021/12/06 08:18:07;;;;;;;23.42;17.05;;;;;;;;;;4978371;28;20038;-50
2021/12/06 08:20:35;;;;;;;21.48;16.05;;;;;;;;;;4992007;28;20054;-54
2021/12/06 08:23:03;;;;;;;20.73;14.85;;;;;;;;;;4989964;28;20126;-53
2021/12/06 08:25:30;;;;;;;24.40;16.65;;;;;;;;;;4989840;28;20038;-60
2021/12/06 08:27:57;;;;;;;16.85;13.60;;;;;;;;;;4988881;28;20042;-54
2021/12/06 08:30:26;;;;;;;20.33;15.02;;;;;;;;;;4984015;28;20142;-48
2021/12/06 08:32:56;;;;;;;18.40;15.10;;;;;;;;;;4978312;28;21181;-52
2021/12/06 08:35:34;;;;;;;15.43;11.52;;;;;;;;;;4990689;28;20053;-52
2021/12/06 08:38:02;;;;;;;18.98;13.63;;;;;;;;;;4992142;28;20485;-47
2021/12/06 08:40:30;;;;;;;13.38;11.13;;;;;;;;;;4990957;28;20070;-52
2021/12/06 08:42:58;;;;;;;16.65;12.60;;;;;;;;;;4990660;28;20050;-49
2021/12/06 08:45:26;;;;;;;16.45;12.10;;;;;;;;;;4991959;28;20058;-51
2021/12/06 08:47:54;;;;;;;16.42;11.27;;;;;;;;;;4991641;28;20064;-52
2021/12/06 08:50:25;;;;;;;12.45;10.25;;;;;;;;;;4990052;28;20045;-49
2021/12/06 08:52:53;;;;;;;18.13;12.70;;;;;;;;;;4987949;28;21993;-47
2021/12/06 08:55:22;;;;;;;24.38;13.90;;;;;;;;;;4990989;28;20374;-48
2021/12/06 08:57:50;;;;;;;21.70;19.42;;;;;;;;;;4991605;28;20042;-48
2021/12/06 09:00:23;;;;;;;21.52;17.63;;;;;;;;;;4974413;28;20103;-48
2021/12/06 09:02:51;;;;;;;20.30;16.20;;;;;;;;;;4991921;28;20100;-53
2021/12/06 09:05:24;;;;;;;21.27;16.23;;;;;;;;;;4992091;28;20071;-55
2021/12/06 09:07:52;;;;;;;22.58;19.17;;;;;;;;;;4991376;28;20053;-49
2021/12/06 09:10:20;;;;;;;22.52;16.15;;;;;;;;;;4992087;28;20038;-48
2021/12/06 09:12:47;;;;;;;20.27;16.02;;;;;;;;;;4994806;28;20053;-49
2021/12/06 09:15:17;;;;;;;22.38;17.00;;;;;;;;;;4995968;28;20062;-52
2021/12/06 09:17:48;;;;;;;16.90;15.10;;;;;;;;;;4987735;28;20043;-50
2021/12/06 09:20:16;;;;;;;21.48;17.38;;;;;;;;;;4995068;28;20409;-51
2021/12/06 09:22:45;;;;;;;17.25;14.65;;;;;;;;;;4994563;28;20089;-58
2021/12/06 09:25:12;;;;;;;18.17;15.18;;;;;;;;;;4995475;28;20074;-54
2021/12/06 09:27:39;;;;;;;17.67;15.75;;;;;;;;;;4995226;28;20050;-51
2021/12/06 09:30:10;;;;;;;21.92;17.15;;;;;;;;;;4994099;28;20089;-52
2021/12/06 09:32:38;;;;;;;18.45;16.10;;;;;;;;;;4994449;28;20042;-52
2021/12/06 09:35:05;;;;;;;22.83;17.33;;;;;;;;;;4994162;28;20398;-47
2021/12/06 09:37:36;;;;;;;21.15;16.25;;;;;;;;;;4994760;28;20042;-52
2021/12/06 09:40:05;;;;;;;19.60;17.15;;;;;;;;;;4994679;28;20069;-51
2021/12/06 09:42:35;;;;;;;20.88;17.05;;;;;;;;;;4995354;28;20081;-53
2021/12/06 09:45:05;;;;;;;21.40;18.33;;;;;;;;;;4995022;28;20042;-53
2021/12/06 09:47:33;;;;;;;21.10;17.58;;;;;;;;;;4994124;28;20500;-49
2021/12/06 09:50:00;;;;;;;24.83;18.40;;;;;;;;;;4994385;28;20038;-52
2021/12/06 09:52:27;;;;;;;27.45;21.52;;;;;;;;;;4994189;28;20050;-53
2021/12/06 09:54:55;;;;;;;23.15;20.08;;;;;;;;;;4995054;28;20100;-53
2021/12/06 09:57:22;;;;;;;29.83;22.10;;;;;;;;;;4987014;28;20044;-52
2021/12/06 09:59:49;;;;;;;30.98;22.90;;;;;;;;;;4994401;28;20046;-55
2021/12/06 10:02:19;;;;;;;28.23;21.80;;;;;;;;;;4994128;28;20073;-51
2021/12/06 10:04:50;;;;;;;28.73;20.88;;;;;;;;;;4994949;28;20046;-55
2021/12/06 10:07:19;;;;;;;33.42;24.95;;;;;;;;;;4983964;28;20046;-55
2021/12/06 10:09:46;;;;;;;32.80;25.45;;;;;;;;;;4990836;28;20054;-51
2021/12/06 10:12:16;;;;;;;33.95;27.67;;;;;;;;;;4994111;28;20046;-51
2021/12/06 10:14:44;;;;;;;33.45;27.23;;;;;;;;;;4994471;28;20054;-50
2021/12/06 10:17:12;;;;;;;33.47;24.52;;;;;;;;;;4994093;28;20042;-50
2021/12/06 10:19:39;;;;;;;37.03;29.48;;;;;;;;;;4993827;28;20042;-49
2021/12/06 10:22:06;;;;;;;37.83;29.42;;;;;;;;;;4993163;28;20081;-49
2021/12/06 10:24:35;;;;;;;38.78;29.67;;;;;;;;;;4994577;28;20073;-55
2021/12/06 10:27:10;;;;;;;32.45;28.30;;;;;;;;;;4994490;28;20042;-47
2021/12/06 10:29:44;;;;;;;38.58;30.38;;;;;;;;;;4993054;28;20093;-50
2021/12/06 10:32:17;;;;;;;39.42;33.33;;;;;;;;;;4993811;28;20464;-51
2021/12/06 10:35:12;;;;;;;40.67;32.03;;;;;;;;;;4993844;28;20108;-55
2021/12/06 10:37:45;;;;;;;39.80;33.78;;;;;;;;;;4994281;28;20050;-49
2021/12/06 10:40:34;;;;;;;42.08;33.30;;;;;;;;;;4992946;28;20048;-54
2021/12/06 10:43:05;;;;;;;43.78;34.10;;;;;;;;;;4991513;28;20058;-49
2021/12/06 10:45:36;;;;;;;45.67;34.17;;;;;;;;;;4993542;28;20042;-53
2021/12/06 10:48:15;;;;;;;41.65;33.55;;;;;;;;;;4994285;28;20133;-51
2021/12/06 10:51:02;;;;;;;44.42;36.75;;;;;;;;;;4993446;28;20042;-50
2021/12/06 10:53:32;;;;;;;45.30;36.50;;;;;;;;;;4992982;28;20557;-48
2021/12/06 10:56:00;;;;;;;45.78;36.42;;;;;;;;;;4994142;28;20054;-50
2021/12/06 10:58:29;;;;;;;40.15;33.25;;;;;;;;;;4993112;28;20402;-53
2021/12/06 11:01:04;;;;;;;41.42;31.88;;;;;;;;;;4992693;28;20153;-54
2021/12/06 11:03:37;;;;;;;38.88;31.42;;;;;;;;;;4993500;28;20500;-55
2021/12/06 11:06:09;;;;;;;37.83;31.73;;;;;;;;;;4993902;28;20050;-56
2021/12/06 11:08:38;;;;;;;37.72;30.88;;;;;;;;;;4993404;28;20054;-54
2021/12/06 11:11:09;;;;;;;37.63;30.73;;;;;;;;;;4993431;28;20050;-56
2021/12/06 11:13:39;;;;;;;36.35;29.65;;;;;;;;;;4993364;28;20046;-54
2021/12/06 11:16:13;;;;;;;39.58;31.20;;;;;;;;;;4993709;28;20501;-55
2021/12/06 11:18:46;;;;;;;37.22;32.47;;;;;;;;;;4991990;28;20042;-58
2021/12/06 11:21:26;;;;;;;38.28;28.20;;;;;;;;;;4990920;28;20042;-52
2021/12/06 11:24:17;;;;;;;41.22;32.00;;;;;;;;;;4991074;28;20046;-52
2021/12/06 11:26:58;;;;;;;44.45;31.27;;;;;;;;;;4991228;28;20048;-55
2021/12/06 11:29:28;;;;;;;37.33;29.70;;;;;;;;;;4990832;28;20650;-57
2021/12/06 11:32:02;;;;;;;40.28;30.45;;;;;;;;;;4991110;28;20046;-55
2021/12/06 11:34:33;;;;;;;39.83;31.83;;;;;;;;;;4989280;28;20414;-54
2021/12/06 11:37:00;;;;;;;38.35;29.80;;;;;;;;;;4992262;28;20158;-56
2021/12/06 11:39:27;;;;;;;33.97;27.80;;;;;;;;;;4993232;28;20587;-58
2021/12/06 11:41:58;;;;;;;37.70;27.98;;;;;;;;;;4992449;28;20508;-59
2021/12/06 11:44:28;;;;;;;31.65;26.42;;;;;;;;;;4984783;28;20077;-61
2021/12/06 11:47:13;;;;;;;28.58;23.60;;;;;;;;;;4992700;28;20057;-61
2021/12/06 11:49:52;;;;;;;29.77;21.48;;;;;;;;;;4992609;28;20042;-63
2021/12/06 11:52:23;;;;;;;29.30;22.20;;;;;;;;;;4991915;28;20046;-61
2021/12/06 11:55:04;;;;;;;28.73;22.30;;;;;;;;;;4990340;28;20500;-62
2021/12/06 11:57:39;;;;;;;24.73;19.95;;;;;;;;;;4990543;28;20050;-60
2021/12/06 12:00:14;;;;;;;26.92;21.23;;;;;;;;;;4987700;28;20050;-59
2021/12/06 12:02:46;;;;;;;21.50;17.42;;;;;;;;;;4990635;28;20393;-60
2021/12/06 12:05:16;;;;;;;25.95;17.50;;;;;;;;;;4991013;28;20042;-63
2021/12/06 12:08:04;;;;;;;17.02;14.50;;;;;;;;;;4991261;28;20046;-61
2021/12/06 12:10:31;;;;;;;18.85;14.05;;;;;;;;;;4991201;28;20046;-61
2021/12/06 12:12:58;;;;;;;15.35;13.73;;;;;;;;;;4991158;28;20058;-62
2021/12/06 12:15:25;;;;;;;13.60;11.20;;;;;;;;;;4990918;28;20050;-61
2021/12/06 12:17:53;;;;;;;19.02;14.48;;;;;;;;;;4991219;28;20118;-63
2021/12/06 12:20:40;;;;;;;20.38;15.25;;;;;;;;;;4990077;28;20030;-60
2021/12/06 12:23:08;;;;;;;18.17;13.75;;;;;;;;;;4991382;28;20043;-58
2021/12/06 12:25:43;;;;;;;170.98;21.50;;;;;;;;;;4991482;28;20449;-60
2021/12/06 12:28:26;;;;;;;19.35;16.23;;;;;;;;;;4991872;28;20090;-56
2021/12/06 12:30:56;;;;;;;18.75;14.90;;;;;;;;;;4990834;28;20424;-69
2021/12/06 12:33:23;;;;;;;22.20;17.85;;;;;;;;;;4989120;28;20038;-59
2021/12/06 12:35:57;;;;;;;22.58;17.65;;;;;;;;;;4983698;28;20047;-60
2021/12/06 12:38:28;;;;;;;23.13;17.08;;;;;;;;;;4965577;28;20053;-61
2021/12/06 12:40:58;;;;;;;21.52;16.13;;;;;;;;;;4988832;28;20558;-59
2021/12/06 12:43:32;;;;;;;21.90;16.50;;;;;;;;;;4989476;28;20093;-54
2021/12/06 12:46:11;;;;;;;18.83;16.55;;;;;;;;;;4985025;28;20097;-59
2021/12/06 12:48:57;;;;;;;22.50;19.42;;;;;;;;;;4990566;28;20437;-59
2021/12/06 12:51:37;;;;;;;25.15;19.95;;;;;;;;;;4995211;28;20053;-59
2021/12/06 12:54:25;;;;;;;25.05;20.80;;;;;;;;;;4995385;28;20042;-59
2021/12/06 12:57:03;;;;;;;31.85;25.58;;;;;;;;;;4987036;28;20507;-60
2021/12/06 12:59:37;;;;;;;32.92;26.48;;;;;;;;;;4994600;28;20581;-56
2021/12/06 13:02:20;;;;;;;29.67;24.20;;;;;;;;;;4973141;28;20047;-58
2021/12/06 13:04:59;;;;;;;31.17;25.13;;;;;;;;;;4994152;28;20042;-59
2021/12/06 13:07:38;;;;;;;29.48;24.38;;;;;;;;;;5005640;28;20082;-59
2021/12/06 13:10:24;;;;;;;32.10;26.80;;;;;;;;;;4994124;28;20042;-59
2021/12/06 13:12:54;;;;;;;31.48;27.58;;;;;;;;;;4993612;28;20572;-61
2021/12/06 13:15:22;;;;;;;35.97;30.75;;;;;;;;;;4990087;28;20053;-58
2021/12/06 13:17:50;;;;;;;34.78;26.80;;;;;;;;;;4994698;28;20053;-59
2021/12/06 13:20:25;;;;;;;27.95;24.88;;;;;;;;;;4996109;28;20061;-59
2021/12/06 13:22:55;;;;;;;33.47;26.38;;;;;;;;;;4992771;28;20382;-60
2021/12/06 13:25:27;;;;;;;27.00;23.73;;;;;;;;;;4988533;28;20049;-59
2021/12/06 13:28:07;;;;;;;29.95;22.27;;;;;;;;;;4997407;28;20054;-58
2021/12/06 13:30:43;;;;;;;27.30;23.08;;;;;;;;;;4997259;28;20049;-59
2021/12/06 13:33:11;;;;;;;29.23;23.50;;;;;;;;;;4992264;28;20563;-58
2021/12/06 13:35:55;;;;;;;29.35;24.20;;;;;;;;;;4995575;28;20432;-60
2021/12/06 13:38:34;;;;;;;32.42;24.02;;;;;;;;;;4997265;28;20062;-58
2021/12/06 13:41:05;;;;;;;29.50;24.88;;;;;;;;;;4994062;28;20043;-59
2021/12/06 13:44:01;;;;;;;31.90;24.30;;;;;;;;;;4996003;28;20054;-59
2021/12/06 13:46:36;;;;;;;27.85;23.52;;;;;;;;;;4993129;28;20054;-58
2021/12/06 13:49:08;;;;;;;30.48;25.45;;;;;;;;;;4990254;28;20035;-58
2021/12/06 13:51:55;;;;;;;28.52;23.35;;;;;;;;;;4993978;28;20048;-58
2021/12/06 13:54:33;;;;;;;29.38;24.65;;;;;;;;;;4992838;28;20046;-58
2021/12/06 13:57:10;;;;;;;32.85;25.35;;;;;;;;;;4997034;28;20132;-58
2021/12/06 13:59:41;;;;;;;27.27;23.58;;;;;;;;;;4994492;28;20482;-59
2021/12/06 14:02:13;;;;;;;29.30;21.63;;;;;;;;;;4993749;28;20046;-57
2021/12/06 14:04:42;;;;;;;30.10;24.33;;;;;;;;;;4982767;28;20050;-58
2021/12/06 14:07:11;;;;;;;29.77;23.02;;;;;;;;;;4991263;28;20043;-58
2021/12/06 14:09:41;;;;;;;30.83;26.15;;;;;;;;;;4994735;28;20179;-59
2021/12/06 14:12:12;;;;;;;33.35;27.35;;;;;;;;;;5003242;28;20405;-61
2021/12/06 14:14:41;;;;;;;29.95;25.55;;;;;;;;;;5001279;28;20614;-60
2021/12/06 14:17:10;;;;;;;32.40;26.15;;;;;;;;;;4995521;28;20362;-59
2021/12/06 14:19:38;;;;;;;34.13;27.60;;;;;;;;;;4997048;28;20046;-60
2021/12/06 14:22:11;;;;;;;31.02;26.63;;;;;;;;;;4997727;28;20057;-59
2021/12/06 14:24:39;;;;;;;31.63;26.98;;;;;;;;;;5004653;28;20085;-59
2021/12/06 14:27:08;;;;;;;35.17;27.30;;;;;;;;;;5003721;28;20394;-58
2021/12/06 14:29:35;;;;;;;32.58;27.52;;;;;;;;;;4991807;28;20038;-59
2021/12/06 14:32:07;;;;;;;43.22;31.63;;;;;;;;;;4989760;28;20054;-58
2021/12/06 14:34:39;;;;;;;41.80;30.10;;;;;;;;;;4991388;28;20046;-61
2021/12/06 14:37:18;;;;;;;38.47;30.45;;;;;;;;;;4991517;28;20046;-60
2021/12/06 14:39:56;;;;;;;35.20;30.45;;;;;;;;;;4986809;28;20518;-61
2021/12/06 14:42:25;;;;;;;37.53;29.92;;;;;;;;;;4988614;28;20039;-59
2021/12/06 14:45:04;;;;;;;38.88;31.30;;;;;;;;;;4996120;28;20573;-61
2021/12/06 14:47:58;;;;;;;34.53;29.08;;;;;;;;;;4988503;28;20141;-60
2021/12/06 14:50:35;;;;;;;37.35;29.50;;;;;;;;;;4988966;28;20390;-60